Time;durP1;ratioP1;P1;durP2;ratioP2;P2;SDS_P1;SDS_P2;PMS_P1;PMS_P2;Temp;Humidity;BMP_temperature;BMP_pressure;BME280_temperature;BME280_humidity;BME280_pressure;Samples;Min_cycle;Max_cycle;Signal;HPM_P1;HPM_P2
2023/04/15 00:00:15;;;;;;;10.88;4.60;;;;;;;11.83;100.00;99387.56;5086158;28;20058;-33
2023/04/15 00:02:41;;;;;;;9.30;4.90;;;;;;;11.77;100.00;99391.19;5086264;28;20028;-33
2023/04/15 00:05:07;;;;;;;10.10;5.53;;;;;;;11.92;100.00;99371.94;5085902;28;20425;-37
2023/04/15 00:07:33;;;;;;;7.38;4.47;;;;;;;12.03;100.00;99355.00;5085642;28;20089;-33
2023/04/15 00:09:58;;;;;;;9.32;4.28;;;;;;;11.95;100.00;99350.06;5086034;28;20036;-34
2023/04/15 00:12:26;;;;;;;6.75;3.58;;;;;;;11.89;100.00;99351.88;5085998;28;20032;-33
2023/04/15 00:14:51;;;;;;;6.38;3.47;;;;;;;11.64;100.00;99355.72;5085784;28;20046;-36
2023/04/15 00:17:17;;;;;;;7.78;3.70;;;;;;;11.63;100.00;99351.44;5085619;28;20039;-34
2023/04/15 00:19:44;;;;;;;7.15;3.72;;;;;;;11.32;100.00;99352.00;5085956;28;20031;-35
2023/04/15 00:22:11;;;;;;;7.78;3.38;;;;;;;11.50;100.00;99365.13;5085609;28;20035;-34
2023/04/15 00:24:36;;;;;;;9.10;3.05;;;;;;;11.59;100.00;99369.00;5085559;28;20032;-33
2023/04/15 00:27:02;;;;;;;6.65;3.20;;;;;;;11.39;100.00;99361.47;5085528;28;20100;-34
2023/04/15 00:29:28;;;;;;;7.55;3.22;;;;;;;11.34;100.00;99365.91;5085860;28;20059;-34
2023/04/15 00:31:54;;;;;;;6.95;2.90;;;;;;;11.36;100.00;99361.13;5085624;28;20062;-33
2023/04/15 00:34:19;;;;;;;7.47;3.55;;;;;;;11.34;100.00;99344.56;5085735;28;20029;-33
2023/04/15 00:36:45;;;;;;;8.70;3.53;;;;;;;11.36;100.00;99337.94;5085446;28;20031;-34
2023/04/15 00:39:10;;;;;;;5.93;3.25;;;;;;;11.31;100.00;99313.00;5085696;28;20081;-35
2023/04/15 00:41:38;;;;;;;7.97;3.38;;;;;;;11.20;100.00;99323.53;5085422;28;20081;-33
2023/04/15 00:44:05;;;;;;;6.90;3.38;;;;;;;10.99;100.00;99305.53;5085380;28;20092;-33
2023/04/15 00:46:34;;;;;;;7.10;3.53;;;;;;;11.22;100.00;99318.75;5085674;28;20040;-36
2023/04/15 00:49:02;;;;;;;8.10;3.45;;;;;;;11.12;100.00;99297.22;5085563;28;20028;-34
2023/04/15 00:51:28;;;;;;;8.30;3.60;;;;;;;11.02;100.00;99305.88;5085378;28;20028;-35
2023/04/15 00:53:53;;;;;;;6.45;3.47;;;;;;;10.73;100.00;99291.75;5085563;28;20020;-34
2023/04/15 00:56:23;;;;;;;8.00;3.25;;;;;;;10.75;100.00;99276.31;5085236;28;20028;-33
2023/04/15 00:58:50;;;;;;;6.32;3.35;;;;;;;10.90;100.00;99307.78;5085517;28;20023;-33
2023/04/15 01:01:16;;;;;;;9.13;3.72;;;;;;;10.88;100.00;99315.22;5085470;28;20508;-33
2023/04/15 01:03:42;;;;;;;6.90;3.42;;;;;;;11.01;100.00;99330.94;5085165;28;20032;-33
2023/04/15 01:06:07;;;;;;;6.05;3.80;;;;;;;10.98;100.00;99338.59;5085128;28;20116;-34
2023/04/15 01:08:33;;;;;;;7.70;3.75;;;;;;;11.20;100.00;99334.19;5085413;28;20051;-34
2023/04/15 01:11:02;;;;;;;10.18;4.65;;;;;;;11.22;100.00;99332.09;5085841;28;20059;-33
2023/04/15 01:13:28;;;;;;;10.90;4.70;;;;;;;11.38;100.00;99324.31;5089223;28;20031;-34
2023/04/15 01:15:55;;;;;;;7.50;3.72;;;;;;;11.42;100.00;99336.13;5088921;28;20420;-33
2023/04/15 01:18:22;;;;;;;7.78;4.00;;;;;;;11.53;100.00;99345.94;5089388;28;20028;-33
2023/04/15 01:20:48;;;;;;;11.77;5.15;;;;;;;11.38;100.00;99325.16;5089019;28;20081;-32
2023/04/15 01:23:13;;;;;;;10.82;5.50;;;;;;;11.16;100.00;99333.06;5088998;28;20035;-33
2023/04/15 01:25:41;;;;;;;11.15;4.72;;;;;;;11.36;100.00;99329.94;5088845;28;20417;-33
2023/04/15 01:28:08;;;;;;;12.90;5.63;;;;;;;11.30;100.00;99333.56;5088831;28;20016;-33
2023/04/15 01:30:34;;;;;;;10.30;5.15;;;;;;;11.54;100.00;99312.03;5089001;28;20081;-35
2023/04/15 01:33:00;;;;;;;12.32;4.70;;;;;;;11.56;100.00;99304.59;5098602;28;20024;-33
2023/04/15 01:35:26;;;;;;;7.80;4.13;;;;;;;11.68;100.00;99299.16;5107427;28;20039;-33
2023/04/15 01:37:53;;;;;;;8.38;3.90;;;;;;;11.49;100.00;99302.09;5106230;28;20493;-34
2023/04/15 01:40:19;;;;;;;8.73;3.42;;;;;;;11.55;100.00;99303.78;5100000;28;20539;-33
2023/04/15 01:42:45;;;;;;;7.72;3.72;;;;;;;11.44;100.00;99302.00;5088270;28;20020;-32
2023/04/15 01:45:12;;;;;;;7.55;3.67;;;;;;;11.41;100.00;99323.88;5098914;28;20555;-32
2023/04/15 01:47:37;;;;;;;7.90;3.92;;;;;;;11.59;100.00;99342.31;5108825;27;20038;-32
2023/04/15 01:50:03;;;;;;;8.02;3.80;;;;;;;11.58;100.00;99359.38;5109043;28;20695;-33
2023/04/15 01:52:28;;;;;;;7.30;3.58;;;;;;;11.63;100.00;99380.84;5108693;28;20111;-32
2023/04/15 01:54:53;;;;;;;8.43;3.95;;;;;;;11.68;100.00;99395.31;5108385;28;20776;-32
2023/04/15 01:57:19;;;;;;;8.63;3.65;;;;;;;11.58;100.00;99403.97;5109007;28;20016;-34
2023/04/15 01:59:44;;;;;;;9.88;3.85;;;;;;;11.60;100.00;99397.31;5108453;28;20140;-32
2023/04/15 02:02:11;;;;;;;7.70;3.85;;;;;;;11.44;100.00;99393.63;5108604;28;20031;-32
2023/04/15 02:04:36;;;;;;;7.18;3.85;;;;;;;11.63;100.00;99407.53;5108435;28;20050;-33
2023/04/15 02:07:02;;;;;;;9.15;4.07;;;;;;;11.60;100.00;99407.22;5108577;28;20439;-33
2023/04/15 02:09:28;;;;;;;8.00;4.60;;;;;;;11.50;100.00;99402.50;5108504;28;20030;-33
2023/04/15 02:11:53;;;;;;;12.18;4.90;;;;;;;11.74;100.00;99386.34;5108399;28;20465;-34
2023/04/15 02:14:19;;;;;;;9.50;5.07;;;;;;;11.88;100.00;99384.16;5108664;28;20104;-34
2023/04/15 02:16:44;;;;;;;9.40;4.88;;;;;;;11.86;100.00;99341.66;5108045;28;20035;-36
2023/04/15 02:19:10;;;;;;;10.27;4.50;;;;;;;11.97;100.00;99354.16;5108672;28;20030;-34
2023/04/15 02:21:35;;;;;;;9.60;4.57;;;;;;;12.00;100.00;99337.59;5107825;28;20031;-36
2023/04/15 02:24:01;;;;;;;9.13;5.10;;;;;;;12.12;100.00;99323.34;5107140;28;20023;-33
2023/04/15 02:26:27;;;;;;;8.23;4.75;;;;;;;12.33;100.00;99341.25;5107831;28;20466;-35
2023/04/15 02:28:53;;;;;;;7.68;3.90;;;;;;;12.32;100.00;99350.34;5108299;28;20031;-32
2023/04/15 02:31:20;;;;;;;9.18;3.47;;;;;;;12.18;100.00;99355.22;5108086;27;20070;-32
2023/04/15 02:33:45;;;;;;;8.25;3.80;;;;;;;12.20;100.00;99368.34;5108360;28;20020;-32
2023/04/15 02:36:11;;;;;;;8.43;4.03;;;;;;;11.93;100.00;99369.03;5107863;28;20470;-32
2023/04/15 02:38:39;;;;;;;7.90;3.50;;;;;;;12.05;100.00;99382.28;5107861;28;20090;-32
2023/04/15 02:41:04;;;;;;;7.82;3.40;;;;;;;11.72;100.00;99380.44;5108163;28;20020;-32
2023/04/15 02:43:30;;;;;;;9.50;3.92;;;;;;;11.78;100.00;99392.81;5108049;28;20038;-32
2023/04/15 02:45:55;;;;;;;8.32;4.07;;;;;;;11.85;100.00;99406.84;5107974;28;20080;-32
2023/04/15 02:48:21;;;;;;;13.05;4.80;;;;;;;11.96;100.00;99387.25;5107594;28;20055;-32
2023/04/15 02:50:46;;;;;;;7.82;4.10;;;;;;;11.96;100.00;99395.25;5107830;28;20096;-30
2023/04/15 02:53:13;;;;;;;7.53;4.30;;;;;;;12.00;100.00;99387.56;5107703;28;20419;-30
2023/04/15 02:55:39;;;;;;;7.05;3.90;;;;;;;11.93;100.00;99379.72;5107843;28;20030;-32
2023/04/15 02:58:05;;;;;;;8.32;4.45;;;;;;;11.98;100.00;99381.66;5107742;28;20035;-32
2023/04/15 03:00:31;;;;;;;9.55;4.30;;;;;;;11.86;100.00;99392.41;5107511;28;20399;-31
2023/04/15 03:03:01;;;;;;;9.93;4.80;;;;;;;11.90;100.00;99385.56;5107973;28;20023;-33
2023/04/15 03:05:26;;;;;;;9.02;4.45;;;;;;;11.72;100.00;99393.78;5107392;28;20042;-33
2023/04/15 03:07:52;;;;;;;9.10;4.90;;;;;;;11.99;100.00;99386.78;5107689;28;20051;-32
2023/04/15 03:10:18;;;;;;;9.85;5.28;;;;;;;11.69;100.00;99372.88;5107293;28;20030;-32
2023/04/15 03:12:43;;;;;;;12.52;5.65;;;;;;;11.69;100.00;99372.88;5107584;28;20028;-33
2023/04/15 03:15:09;;;;;;;13.40;5.22;;;;;;;11.65;100.00;99405.44;5107225;28;20115;-33
2023/04/15 03:17:34;;;;;;;9.35;4.57;;;;;;;11.56;100.00;99412.22;5107206;28;20023;-32
2023/04/15 03:20:02;;;;;;;7.32;4.25;;;;;;;11.65;100.00;99378.72;5106925;28;20027;-32
2023/04/15 03:22:28;;;;;;;7.45;4.18;;;;;;;11.63;100.00;99378.16;5107008;28;20019;-32
2023/04/15 03:24:53;;;;;;;9.48;4.95;;;;;;;11.66;100.00;99371.53;5107120;28;20075;-32
2023/04/15 03:27:18;;;;;;;10.60;4.72;;;;;;;11.66;100.00;99380.34;5106774;28;20046;-32
2023/04/15 03:29:44;;;;;;;10.40;5.15;;;;;;;11.51;100.00;99387.31;5106949;28;20047;-33
2023/04/15 03:32:09;;;;;;;9.90;4.57;;;;;;;11.70;100.00;99420.72;5105292;28;20027;-32
2023/04/15 03:34:35;;;;;;;10.15;4.90;;;;;;;11.61;100.00;99431.00;5105995;28;20019;-32
2023/04/15 03:37:00;;;;;;;8.88;5.05;;;;;;;11.62;100.00;99445.16;5106790;28;20024;-32
2023/04/15 03:39:26;;;;;;;8.40;5.50;;;;;;;11.92;100.00;99452.91;5098776;28;20420;-32
2023/04/15 03:41:51;;;;;;;10.98;7.13;;;;;;;12.02;100.00;99455.75;5101121;28;20114;-31
2023/04/15 03:44:16;;;;;;;14.13;6.00;;;;;;;12.10;100.00;99469.78;5106166;28;20060;-32
2023/04/15 03:46:42;;;;;;;10.30;5.93;;;;;;;11.93;100.00;99465.25;5106082;28;20019;-32
2023/04/15 03:49:07;;;;;;;9.00;6.07;;;;;;;11.95;100.00;99465.81;5106234;28;20162;-33
2023/04/15 03:51:33;;;;;;;12.27;6.10;;;;;;;11.96;100.00;99454.06;5106377;28;20385;-32
2023/04/15 03:53:59;;;;;;;11.40;7.13;;;;;;;11.78;100.00;99440.91;5106189;28;20022;-32
2023/04/15 03:56:24;;;;;;;10.63;5.75;;;;;;;12.20;100.00;99437.84;5106125;27;20415;-32
2023/04/15 03:58:50;;;;;;;9.65;6.18;;;;;;;12.24;100.00;99433.63;5106206;27;20024;-32
2023/04/15 04:01:15;;;;;;;18.40;12.38;;;;;;;12.14;100.00;99434.28;5105639;28;20050;-33
2023/04/15 04:03:41;;;;;;;20.63;16.55;;;;;;;12.11;100.00;99445.44;5105787;28;20027;-33
2023/04/15 04:06:07;;;;;;;19.30;14.55;;;;;;;12.21;100.00;99439.47;5106051;28;20158;-33
2023/04/15 04:08:32;;;;;;;11.48;6.55;;;;;;;12.02;100.00;99450.41;5105616;28;20027;-33
2023/04/15 04:10:58;;;;;;;74.50;54.13;;;;;;;12.16;100.00;99445.53;5106144;28;20036;-32
2023/04/15 04:13:23;;;;;;;32.20;27.92;;;;;;;12.09;100.00;99446.75;5104531;28;20439;-32
2023/04/15 04:15:49;;;;;;;20.52;15.43;;;;;;;12.39;100.00;99452.56;5102414;28;20088;-32
2023/04/15 04:18:14;;;;;;;12.05;6.78;;;;;;;12.51;100.00;99440.97;5105913;28;20035;-32
2023/04/15 04:20:40;;;;;;;12.13;8.35;;;;;;;12.55;100.00;99455.47;5105728;27;20027;-34
2023/04/15 04:23:06;;;;;;;16.33;9.80;;;;;;;12.66;100.00;99457.19;5106092;28;20022;-33
2023/04/15 04:25:31;;;;;;;13.65;9.63;;;;;;;12.49;100.00;99449.22;5106292;28;20024;-32
2023/04/15 04:27:57;;;;;;;15.40;11.07;;;;;;;12.37;100.00;99473.38;5105837;28;20024;-31
2023/04/15 04:30:23;;;;;;;16.80;10.43;;;;;;;12.34;100.00;99481.91;5106057;28;20127;-31
2023/04/15 04:32:50;;;;;;;19.95;15.20;;;;;;;12.28;100.00;99472.19;5105748;28;20024;-35
2023/04/15 04:35:16;;;;;;;18.73;14.95;;;;;;;12.00;100.00;99475.75;5106219;28;20050;-34
2023/04/15 04:37:41;;;;;;;10.50;7.22;;;;;;;11.93;100.00;99470.59;5105885;28;20447;-33
2023/04/15 04:40:08;;;;;;;11.68;6.80;;;;;;;11.87;100.00;99466.19;5106168;28;20053;-32
2023/04/15 04:42:34;;;;;;;11.18;6.68;;;;;;;12.00;100.00;99471.22;5105824;28;20180;-31
2023/04/15 04:44:59;;;;;;;11.65;6.65;;;;;;;11.93;100.00;99467.06;5106100;28;20587;-31
2023/04/15 04:47:24;;;;;;;11.32;7.07;;;;;;;11.89;100.00;99471.28;5109450;28;20015;-32
2023/04/15 04:49:50;;;;;;;12.60;7.63;;;;;;;11.80;100.00;99470.84;5110219;28;20026;-32
2023/04/15 04:52:16;;;;;;;12.90;7.38;;;;;;;12.06;100.00;99488.16;5110264;27;20835;-32
2023/04/15 04:54:41;;;;;;;12.80;8.45;;;;;;;12.38;100.00;99499.09;5110036;27;20019;-33
2023/04/15 04:57:07;;;;;;;14.52;8.40;;;;;;;12.55;100.00;99506.28;5109916;28;20024;-32
2023/04/15 04:59:32;;;;;;;13.23;8.13;;;;;;;12.42;100.00;99510.09;5110028;27;20547;-32
2023/04/15 05:01:58;;;;;;;12.68;7.50;;;;;;;12.35;100.00;99504.91;5110043;28;20110;-32
2023/04/15 05:04:23;;;;;;;11.52;6.80;;;;;;;12.36;100.00;99509.22;5109803;28;20076;-35
2023/04/15 05:06:49;;;;;;;11.55;8.27;;;;;;;12.51;100.00;99505.16;5109641;27;20078;-31
2023/04/15 05:09:14;;;;;;;11.15;7.18;;;;;;;12.72;100.00;99496.34;5109699;28;20050;-32
2023/04/15 05:11:40;;;;;;;12.45;6.53;;;;;;;12.28;100.00;99504.28;5109721;28;20059;-32
2023/04/15 05:14:05;;;;;;;11.40;6.38;;;;;;;12.19;100.00;99506.53;5109571;28;20020;-33
2023/04/15 05:16:31;;;;;;;11.52;6.63;;;;;;;12.34;100.00;99508.66;5109183;28;20058;-33
2023/04/15 05:18:56;;;;;;;13.23;7.10;;;;;;;12.25;100.00;99523.47;5109695;28;20062;-32
2023/04/15 05:21:22;;;;;;;12.68;7.50;;;;;;;12.25;100.00;99516.25;5109457;28;20031;-32
2023/04/15 05:23:47;;;;;;;18.40;10.48;;;;;;;12.17;100.00;99524.66;5109504;28;20062;-32
2023/04/15 05:26:13;;;;;;;18.90;10.95;;;;;;;12.16;100.00;99527.59;5109550;28;20416;-32
2023/04/15 05:28:38;;;;;;;20.13;13.50;;;;;;;12.15;100.00;99542.81;5109546;28;20027;-32
2023/04/15 05:31:04;;;;;;;25.33;13.70;;;;;;;12.31;100.00;99532.38;5109314;28;20020;-32
2023/04/15 05:33:30;;;;;;;22.40;13.57;;;;;;;12.79;100.00;99520.22;5109065;28;20047;-33
2023/04/15 05:35:55;;;;;;;23.40;14.23;;;;;;;12.79;100.00;99537.13;5109474;28;20051;-32
2023/04/15 05:38:21;;;;;;;19.58;12.77;;;;;;;12.74;100.00;99537.03;5109331;28;20023;-32
2023/04/15 05:40:46;;;;;;;20.52;12.77;;;;;;;12.67;100.00;99541.75;5109023;28;20015;-33
2023/04/15 05:43:12;;;;;;;21.27;13.18;;;;;;;12.57;100.00;99546.97;5108889;28;20023;-31
2023/04/15 05:45:37;;;;;;;27.23;15.85;;;;;;;12.48;100.00;99537.72;5109068;28;20032;-32
2023/04/15 05:48:03;;;;;;;33.50;18.45;;;;;;;12.48;100.00;99543.06;5108847;28;20452;-32
2023/04/15 05:50:28;;;;;;;37.30;21.52;;;;;;;12.81;100.00;99537.69;5109055;28;20945;-33
2023/04/15 05:52:54;;;;;;;33.90;19.90;;;;;;;12.75;100.00;99548.53;5108712;28;20123;-33
2023/04/15 05:55:21;;;;;;;32.13;18.25;;;;;;;12.84;100.00;99555.91;5108880;28;20064;-32
2023/04/15 05:57:46;;;;;;;30.80;18.83;;;;;;;12.66;100.00;99558.84;5108260;28;20031;-32
2023/04/15 06:00:12;;;;;;;29.52;17.73;;;;;;;12.74;100.00;99557.63;5108699;28;20039;-32
2023/04/15 06:02:38;;;;;;;35.15;19.00;;;;;;;12.72;100.00;99567.78;5108796;28;20019;-32
2023/04/15 06:05:08;;;;;;;33.45;19.38;;;;;;;12.99;100.00;99570.56;5108344;28;20030;-33
2023/04/15 06:07:36;;;;;;;34.25;19.58;;;;;;;13.54;100.00;99566.19;5108482;28;20047;-32
2023/04/15 06:10:03;;;;;;;33.58;17.75;;;;;;;13.82;100.00;99581.25;5108652;28;20031;-34
2023/04/15 06:12:28;;;;;;;33.10;19.58;;;;;;;13.62;100.00;99582.63;5108394;28;20106;-32
2023/04/15 06:14:54;;;;;;;33.13;18.90;;;;;;;13.63;100.00;99584.25;5098347;28;20038;-34
2023/04/15 06:17:19;;;;;;;32.00;18.58;;;;;;;13.41;100.00;99578.91;5100379;28;20035;-32
2023/04/15 06:19:44;;;;;;;31.73;18.17;;;;;;;13.72;100.00;99578.47;5108326;28;20035;-33
2023/04/15 06:22:10;;;;;;;30.83;18.65;;;;;;;13.69;100.00;99587.00;5107070;28;20031;-32
2023/04/15 06:24:36;;;;;;;31.92;18.45;;;;;;;14.08;100.00;99590.38;5108256;28;21118;-33
2023/04/15 06:27:02;;;;;;;32.10;19.17;;;;;;;13.91;100.00;99603.03;5108123;28;20026;-33
2023/04/15 06:29:27;;;;;;;29.60;17.63;;;;;;;14.44;100.00;99599.53;5107587;28;20020;-33
2023/04/15 06:31:53;;;;;;;34.03;18.98;;;;;;;14.86;100.00;99600.69;5107895;28;20431;-33
2023/04/15 06:34:18;;;;;;;27.80;16.70;;;;;;;14.79;100.00;99598.22;5107741;28;20420;-32
2023/04/15 06:36:44;;;;;;;26.95;17.52;;;;;;;15.21;100.00;99608.13;5100287;28;20413;-32
2023/04/15 06:39:10;;;;;;;27.25;18.13;;;;;;;15.25;100.00;99614.59;5096358;28;20285;-33
2023/04/15 06:41:35;;;;;;;28.73;17.70;;;;;;;15.14;100.00;99612.94;5107775;28;20023;-32
2023/04/15 06:44:01;;;;;;;20.50;13.85;;;;;;;15.15;100.00;99609.19;5107662;28;20502;-34
2023/04/15 06:46:26;;;;;;;18.90;13.55;;;;;;;15.34;100.00;99611.41;5107753;27;20412;-34
2023/04/15 06:48:52;;;;;;;22.20;14.30;;;;;;;15.32;100.00;99605.50;5107799;28;20031;-32
2023/04/15 06:51:18;;;;;;;25.55;15.02;;;;;;;15.04;100.00;99612.88;5107950;28;20108;-33
2023/04/15 06:53:43;;;;;;;23.50;15.65;;;;;;;15.44;100.00;99614.16;5107486;28;20055;-33
2023/04/15 06:56:09;;;;;;;24.75;15.43;;;;;;;15.37;100.00;99611.72;5107265;28;20024;-33
2023/04/15 06:58:35;;;;;;;24.80;15.70;;;;;;;15.34;100.00;99614.09;5107971;28;20035;-32
2023/04/15 07:01:00;;;;;;;24.52;15.32;;;;;;;14.98;100.00;99614.72;5107251;28;20616;-32
2023/04/15 07:03:26;;;;;;;23.30;15.23;;;;;;;14.96;100.00;99616.84;5107661;28;20089;-33
2023/04/15 07:05:52;;;;;;;24.90;15.95;;;;;;;14.58;100.00;99616.03;5106962;28;20730;-32
2023/04/15 07:08:18;;;;;;;25.77;16.60;;;;;;;14.65;100.00;99611.28;5107357;28;20023;-33
2023/04/15 07:10:45;;;;;;;27.42;16.30;;;;;;;14.57;100.00;99614.44;5107259;28;20023;-32
2023/04/15 07:13:10;;;;;;;24.65;16.65;;;;;;;14.60;100.00;99613.91;5107327;28;20071;-33
2023/04/15 07:15:36;;;;;;;27.75;15.77;;;;;;;14.73;100.00;99623.41;5107233;28;20036;-32
2023/04/15 07:18:01;;;;;;;26.13;15.50;;;;;;;14.96;100.00;99621.44;5106899;28;20039;-32
2023/04/15 07:20:27;;;;;;;21.65;14.93;;;;;;;15.11;100.00;99618.81;5107264;28;20024;-35
2023/04/15 07:22:52;;;;;;;22.58;15.35;;;;;;;15.58;100.00;99627.94;5107055;28;20053;-34
2023/04/15 07:25:18;;;;;;;23.52;15.38;;;;;;;15.68;100.00;99633.34;5107239;28;20028;-33
2023/04/15 07:27:43;;;;;;;25.63;16.67;;;;;;;15.60;100.00;99626.59;5106885;28;20064;-33
2023/04/15 07:30:09;;;;;;;20.25;14.40;;;;;;;15.79;100.00;99642.28;5107058;28;20127;-32
2023/04/15 07:32:35;;;;;;;24.55;15.98;;;;;;;15.16;100.00;99639.53;5106821;28;20404;-32
2023/04/15 07:35:02;;;;;;;23.48;14.63;;;;;;;14.98;100.00;99640.78;5106942;28;20031;-32
2023/04/15 07:37:28;;;;;;;20.48;14.25;;;;;;;15.34;100.00;99638.28;5106980;28;20393;-33
2023/04/15 07:39:54;;;;;;;21.33;14.65;;;;;;;15.72;100.00;99649.75;5106283;28;20430;-33
2023/04/15 07:42:19;;;;;;;25.42;15.85;;;;;;;15.61;100.00;99654.25;5106473;28;20077;-35
2023/04/15 07:44:45;;;;;;;28.23;15.48;;;;;;;15.91;100.00;99640.16;5106338;28;20476;-33
2023/04/15 07:47:11;;;;;;;23.58;16.08;;;;;;;15.98;100.00;99654.19;5106573;28;20020;-33
2023/04/15 07:49:36;;;;;;;22.13;13.23;;;;;;;15.88;100.00;99654.16;5106444;28;20521;-32
2023/04/15 07:52:02;;;;;;;18.38;12.73;;;;;;;15.74;100.00;99648.44;5106404;28;20024;-33
2023/04/15 07:54:28;;;;;;;23.17;14.80;;;;;;;15.98;100.00;99650.69;5106262;28;20023;-33
2023/04/15 07:56:53;;;;;;;20.58;12.95;;;;;;;15.93;100.00;99648.78;5106594;28;20020;-32
2023/04/15 07:59:18;;;;;;;22.58;14.73;;;;;;;16.23;100.00;99652.63;5106273;28;20804;-32
2023/04/15 08:01:44;;;;;;;25.17;13.82;;;;;;;16.15;100.00;99635.13;5106269;28;20028;-31
2023/04/15 08:04:09;;;;;;;24.02;14.15;;;;;;;16.58;100.00;99642.97;5106741;28;20020;-32
2023/04/15 08:06:38;;;;;;;19.83;10.93;;;;;;;16.16;100.00;99646.69;5106082;28;20059;-32
2023/04/15 08:09:04;;;;;;;22.77;14.27;;;;;;;15.93;100.00;99635.34;5106583;28;20104;-32
2023/04/15 08:11:30;;;;;;;25.25;15.85;;;;;;;16.15;100.00;99620.88;5106100;28;20035;-34
2023/04/15 08:13:56;;;;;;;25.05;15.88;;;;;;;15.91;100.00;99637.47;5106406;28;20082;-32
2023/04/15 08:16:23;;;;;;;26.02;16.30;;;;;;;16.31;100.00;99633.28;5106138;28;20480;-31
2023/04/15 08:18:51;;;;;;;31.63;17.27;;;;;;;16.48;100.00;99641.88;5106433;28;20038;-32
2023/04/15 08:21:17;;;;;;;;;;;;;;;16.51;100.00;99645.94;5106898;28;20035;-32
2023/04/15 08:23:44;;;;;;;25.63;15.00;;;;;;;16.62;100.00;99641.38;5105687;27;19911;-33
2023/04/15 08:26:10;;;;;;;28.25;16.52;;;;;;;16.47;100.00;99640.28;5106448;28;20059;-32
2023/04/15 08:28:38;;;;;;;26.50;15.93;;;;;;;16.61;100.00;99645.94;5105925;28;20026;-32
2023/04/15 08:31:03;;;;;;;26.15;15.40;;;;;;;17.26;100.00;99621.94;5106175;28;20030;-32
2023/04/15 08:33:29;;;;;;;20.92;13.65;;;;;;;17.93;98.18;99637.84;5105799;28;20028;-31
2023/04/15 08:35:54;;;;;;;23.50;13.40;;;;;;;17.90;93.56;99640.28;5105779;28;20030;-32
2023/04/15 08:38:20;;;;;;;19.15;12.98;;;;;;;17.58;90.81;99647.69;5093201;28;20023;-32
2023/04/15 08:40:45;;;;;;;19.52;12.50;;;;;;;17.66;91.90;99633.63;5106004;28;20051;-32
2023/04/15 08:43:25;;;;;;;21.70;12.13;;;;;;;17.85;95.17;99639.22;5105924;28;20058;-32
2023/04/15 08:45:51;;;;;;;21.98;11.77;;;;;;;18.28;83.91;99644.13;5105897;28;20036;-31
2023/04/15 08:48:18;;;;;;;18.73;11.35;;;;;;;18.30;89.60;99643.84;5105797;28;20032;-33
2023/04/15 08:50:45;;;;;;;18.02;10.95;;;;;;;18.66;82.13;99639.00;5105919;28;20055;-32
2023/04/15 08:53:11;;;;;;;16.05;10.30;;;;;;;19.27;81.19;99657.34;5105775;28;20439;-34
2023/04/15 08:55:43;;;;;;;17.73;11.30;;;;;;;19.14;82.83;99649.91;5105727;28;20024;-32
2023/04/15 08:58:10;;;;;;;17.35;10.57;;;;;;;18.90;89.31;99659.88;5105971;28;20038;-33
2023/04/15 09:00:36;;;;;;;17.45;8.57;;;;;;;18.55;84.74;99651.78;5105572;28;20023;-32
2023/04/15 09:03:06;;;;;;;15.82;9.32;;;;;;;18.91;84.04;99634.47;5105836;27;20110;-32
2023/04/15 09:05:32;;;;;;;14.32;7.55;;;;;;;18.97;74.80;99660.38;5105568;27;20020;-31
2023/04/15 09:07:58;;;;;;;16.48;9.05;;;;;;;19.31;78.74;99654.06;5105566;28;20039;-32
2023/04/15 09:10:24;;;;;;;15.10;9.10;;;;;;;19.63;79.40;99656.13;5105754;28;20026;-31
2023/04/15 09:12:49;;;;;;;15.13;7.93;;;;;;;19.16;77.37;99646.94;5105635;27;20085;-33
2023/04/15 09:15:15;;;;;;;12.70;6.55;;;;;;;19.49;76.30;99628.97;5105233;27;20027;-32
2023/04/15 09:17:44;;;;;;;10.98;5.72;;;;;;;19.67;73.01;99641.75;5105348;27;20433;-32
2023/04/15 09:20:12;;;;;;;11.75;5.43;;;;;;;20.03;69.70;99640.50;5105768;28;20020;-32
2023/04/15 09:22:38;;;;;;;11.63;5.55;;;;;;;19.67;69.68;99647.16;5105785;28;20023;-32
2023/04/15 09:25:25;;;;;;;11.27;5.93;;;;;;;19.72;70.79;99632.00;5105300;28;20027;-33
2023/04/15 09:27:55;;;;;;;9.82;5.28;;;;;;;20.17;64.67;99619.75;5105687;28;20126;-33
2023/04/15 09:30:21;;;;;;;9.25;4.70;;;;;;;20.41;60.22;99635.91;5105509;28;20401;-31
2023/04/15 09:32:55;;;;;;;9.50;5.13;;;;;;;20.57;62.01;99605.84;5140380;27;20053;-32
2023/04/15 09:35:22;;;;;;;11.18;5.25;;;;;;;21.37;56.72;99628.28;5109275;27;20031;-32
2023/04/15 09:37:51;;;;;;;7.97;4.00;;;;;;;21.00;54.26;99630.88;5109235;27;20034;-31
2023/04/15 09:40:40;;;;;;;10.55;4.35;;;;;;;21.19;56.47;99622.66;5109277;28;20352;-31
2023/04/15 09:43:07;;;;;;;7.22;3.50;;;;;;;21.11;55.37;99617.94;5106202;27;20436;-31
2023/04/15 09:45:34;;;;;;;6.53;3.53;;;;;;;20.96;59.24;99594.59;5109196;28;20023;-32
2023/04/15 09:48:16;;;;;;;6.80;2.58;;;;;;;21.13;59.91;99602.16;5108923;27;20531;-32
2023/04/15 09:50:42;;;;;;;10.10;4.43;;;;;;;20.79;56.08;99616.88;5109005;28;20433;-31
2023/04/15 09:53:15;;;;;;;7.55;2.80;;;;;;;21.34;52.85;99605.28;5109120;27;20034;-33
2023/04/15 09:55:51;;;;;;;7.28;2.80;;;;;;;21.13;49.23;99621.16;5108069;28;20059;-33
2023/04/15 09:58:21;;;;;;;5.65;1.98;;;;;;;20.70;56.20;99596.16;5109128;28;20063;-32
2023/04/15 10:00:48;;;;;;;5.03;2.15;;;;;;;21.36;54.28;99602.28;5108567;27;20024;-31
2023/04/15 10:03:20;;;;;;;5.90;2.42;;;;;;;21.60;55.28;99602.88;5108853;27;20512;-33
2023/04/15 10:05:48;;;;;;;6.30;2.08;;;;;;;21.70;52.79;99606.47;5108342;28;20020;-32
2023/04/15 10:08:16;;;;;;;8.90;2.50;;;;;;;21.05;56.83;99592.03;5108582;28;20126;-32
2023/04/15 10:10:44;;;;;;;6.05;2.20;;;;;;;21.06;55.30;99585.47;5108610;27;20441;-34
2023/04/15 10:13:12;;;;;;;6.07;2.30;;;;;;;21.61;55.38;99581.97;5108599;28;20115;-34
2023/04/15 10:15:38;;;;;;;6.45;2.20;;;;;;;21.80;54.34;99581.81;5108659;27;20024;-31
2023/04/15 10:18:07;;;;;;;4.90;1.92;;;;;;;21.56;54.11;99591.03;5108470;28;20032;-32
2023/04/15 10:20:34;;;;;;;6.22;1.92;;;;;;;21.58;49.15;99591.53;5108368;28;20535;-32
2023/04/15 10:23:01;;;;;;;5.75;2.05;;;;;;;21.21;52.81;99585.19;5108206;28;20030;-32
2023/04/15 10:25:28;;;;;;;5.13;2.03;;;;;;;21.49;54.37;99562.69;5108185;28;20038;-32
2023/04/15 10:27:55;;;;;;;7.90;2.60;;;;;;;21.55;56.36;99573.13;5108788;28;20055;-32
2023/04/15 10:30:21;;;;;;;6.43;2.77;;;;;;;21.88;55.31;99567.53;5108213;27;20520;-32
2023/04/15 10:32:48;;;;;;;7.28;3.35;;;;;;;21.71;53.26;99575.53;5108109;28;20427;-32
2023/04/15 10:35:15;;;;;;;4.75;2.25;;;;;;;21.54;52.21;99557.97;5108086;28;20024;-32
2023/04/15 10:37:40;;;;;;;5.80;2.30;;;;;;;22.57;48.60;99564.53;5102574;28;20512;-31
2023/04/15 10:40:35;;;;;;;5.43;2.40;;;;;;;22.38;49.50;99566.69;5103480;27;20027;-33
2023/04/15 10:43:01;;;;;;;7.40;2.50;;;;;;;22.45;50.11;99562.41;5082158;28;20596;-31
2023/04/15 10:45:31;;;;;;;7.93;2.60;;;;;;;22.55;48.04;99563.25;5140483;27;20795;-33
2023/04/15 10:48:00;;;;;;;7.10;2.30;;;;;;;22.97;47.34;99561.88;5107748;28;20058;-32
2023/04/15 10:50:27;;;;;;;6.93;2.20;;;;;;;;;;5107648;28;20526;-33
2023/04/15 10:52:53;;;;;;;7.20;2.78;;;;;;;22.80;49.39;99557.16;5107828;28;20031;-33
2023/04/15 10:55:21;;;;;;;4.68;2.10;;;;;;;22.84;48.89;99546.44;5107842;28;20444;-33
2023/04/15 10:57:51;;;;;;;5.38;2.08;;;;;;;22.95;48.32;99563.31;5107291;28;20551;-32
2023/04/15 11:00:18;;;;;;;7.93;2.50;;;;;;;22.56;49.95;99551.28;5107509;28;20514;-32
2023/04/15 11:03:06;;;;;;;6.55;1.88;;;;;;;22.53;49.11;99546.47;5107051;28;20099;-31
2023/04/15 11:05:40;;;;;;;4.60;2.08;;;;;;;23.32;49.62;99551.13;5107763;28;20119;-32
2023/04/15 11:08:07;;;;;;;5.38;2.28;;;;;;;23.72;50.12;99542.88;5107072;28;20043;-31
2023/04/15 11:10:33;;;;;;;5.67;1.93;;;;;;;24.33;48.62;99544.78;5107494;28;20039;-32
2023/04/15 11:13:00;;;;;;;5.82;1.80;;;;;;;24.00;44.72;99543.38;5107223;28;20027;-32
2023/04/15 11:15:30;;;;;;;;;;;;;;;24.23;46.67;99541.28;5107332;28;20028;-32
2023/04/15 11:18:21;;;;;;;4.75;1.80;;;;;;;23.97;45.13;99533.13;5107159;28;19919;-31